Time;durP1;ratioP1;P1;durP2;ratioP2;P2;SDS_P1;SDS_P2;PMS_P1;PMS_P2;Temp;Humidity;BMP_temperature;BMP_pressure;BME280_temperature;BME280_humidity;BME280_pressure;Samples;Min_cycle;Max_cycle;Signal;HPM_P1;HPM_P2
2021/08/07 00:01:22;;;;;;;2.42;1.45;;;;;;;18.75;66.91;99227.59;5032701;28;20379;-65
2021/08/07 00:03:49;;;;;;;2.78;1.50;;;;;;;18.81;66.36;99228.84;5032643;28;20064;-65
2021/08/07 00:06:17;;;;;;;2.97;1.30;;;;;;;18.78;66.60;99226.81;5032599;28;20072;-65
2021/08/07 00:08:45;;;;;;;2.85;1.30;;;;;;;18.74;66.71;99226.00;5045215;28;20052;-65
2021/08/07 00:11:13;;;;;;;3.05;1.65;;;;;;;18.78;66.01;99227.66;5051160;28;20508;-63
2021/08/07 00:13:40;;;;;;;3.63;1.33;;;;;;;18.86;65.85;99222.84;5051816;28;20061;-64
2021/08/07 00:16:08;;;;;;;3.03;1.38;;;;;;;18.74;66.36;99223.19;5051894;28;20064;-64
2021/08/07 00:18:36;;;;;;;1.85;1.20;;;;;;;18.81;65.82;99217.56;5050720;28;20049;-65
2021/08/07 00:21:03;;;;;;;3.70;1.60;;;;;;;18.76;66.09;99215.94;5052604;28;20488;-65
2021/08/07 00:23:30;;;;;;;5.22;1.70;;;;;;;18.82;65.83;99219.19;5051607;28;20061;-65
2021/08/07 00:25:59;;;;;;;3.70;1.40;;;;;;;18.75;66.13;99224.78;5052228;28;20068;-65
2021/08/07 00:28:26;;;;;;;3.20;1.50;;;;;;;18.81;65.92;99224.00;5052262;28;20049;-65
2021/08/07 00:30:54;;;;;;;3.15;1.20;;;;;;;18.65;66.43;99221.56;5052466;28;20064;-65
2021/08/07 00:33:21;;;;;;;2.30;1.27;;;;;;;18.67;65.79;99221.97;5052179;28;20056;-65
2021/08/07 00:35:48;;;;;;;2.05;1.10;;;;;;;18.78;65.62;99218.34;5052584;28;20379;-63
2021/08/07 00:38:15;;;;;;;4.03;1.45;;;;;;;18.77;65.79;99211.09;5049860;28;20477;-63
2021/08/07 00:40:43;;;;;;;4.75;1.65;;;;;;;18.73;65.79;99215.91;5032165;28;20479;-63
2021/08/07 00:43:12;;;;;;;2.90;1.50;;;;;;;18.62;66.38;99216.69;5032071;28;20053;-63
2021/08/07 00:45:40;;;;;;;2.28;1.30;;;;;;;18.59;65.93;99222.34;5032000;28;20060;-63
2021/08/07 00:48:08;;;;;;;2.45;1.40;;;;;;;18.53;66.81;99221.91;5032057;28;20085;-64
2021/08/07 00:50:35;;;;;;;3.05;1.50;;;;;;;18.55;66.63;99219.50;5031993;28;20057;-65
2021/08/07 00:53:03;;;;;;;2.53;1.10;;;;;;;18.55;66.48;99215.88;5042149;28;20057;-65
2021/08/07 00:55:31;;;;;;;2.78;1.38;;;;;;;18.47;66.78;99217.88;5051984;28;20064;-65
2021/08/07 00:57:58;;;;;;;3.03;1.33;;;;;;;18.34;67.02;99216.63;5034698;28;20058;-65
2021/08/07 01:00:27;;;;;;;3.17;1.42;;;;;;;18.36;67.02;99217.06;5039177;28;20076;-65
2021/08/07 01:03:03;;;;;;;2.00;1.30;;;;;;;18.27;66.83;99208.97;5031641;28;20065;-65
2021/08/07 01:05:37;;;;;;;2.50;1.40;;;;;;;18.23;66.74;99216.59;5032290;28;20061;-65
2021/08/07 01:08:14;;;;;;;3.53;1.92;;;;;;;18.19;67.29;99210.94;5052892;28;20049;-65
2021/08/07 01:10:49;;;;;;;2.55;1.50;;;;;;;18.12;67.11;99198.84;5055575;28;20057;-65
2021/08/07 01:13:20;;;;;;;4.00;1.60;;;;;;;18.20;67.08;99206.91;5055934;28;20416;-65
2021/08/07 01:15:55;;;;;;;3.08;1.60;;;;;;;18.17;67.04;99199.25;5054213;28;20060;-65
2021/08/07 01:18:24;;;;;;;2.28;1.50;;;;;;;18.01;67.75;99207.25;5055588;28;20053;-65
2021/08/07 01:20:54;;;;;;;2.65;1.30;;;;;;;18.07;67.36;99202.84;5055663;28;20064;-65
2021/08/07 01:23:25;;;;;;;;;;;;;;;17.96;67.61;99200.00;5054697;28;20060;-65
2021/08/07 01:26:02;;;;;;;3.72;1.75;;;;;;;18.02;67.42;99197.59;5055673;28;19921;-65
2021/08/07 01:28:33;;;;;;;3.83;1.30;;;;;;;17.92;67.68;99193.53;5055280;28;20466;-64
2021/08/07 01:31:04;;;;;;;5.78;1.90;;;;;;;17.94;67.94;99198.78;5055407;28;20049;-64
2021/08/07 01:33:32;;;;;;;4.20;1.63;;;;;;;17.97;67.79;99197.97;5054806;28;20390;-64
2021/08/07 01:36:00;;;;;;;2.57;1.30;;;;;;;17.78;68.29;99201.88;5055145;28;20053;-64
2021/08/07 01:38:28;;;;;;;2.15;1.25;;;;;;;17.87;68.08;99205.19;5054546;28;20045;-63
2021/08/07 01:40:55;;;;;;;4.90;1.80;;;;;;;17.83;68.16;99207.97;5055254;28;20057;-63
2021/08/07 01:43:23;;;;;;;3.38;1.42;;;;;;;17.90;68.03;99195.13;5054716;28;20049;-63
2021/08/07 01:45:52;;;;;;;3.15;1.42;;;;;;;17.79;68.27;99193.03;5048286;28;20060;-63
2021/08/07 01:48:28;;;;;;;6.82;1.75;;;;;;;17.82;68.26;99192.25;5035455;28;20057;-63
2021/08/07 01:51:04;;;;;;;4.10;1.40;;;;;;;17.47;69.37;99192.88;5035284;28;20055;-63
2021/08/07 01:53:34;;;;;;;2.88;1.60;;;;;;;17.67;68.80;99196.19;5040811;28;20482;-63
2021/08/07 01:56:04;;;;;;;3.42;1.60;;;;;;;17.75;68.45;99195.03;5055103;28;20056;-63
2021/08/07 01:58:34;;;;;;;4.35;1.50;;;;;;;17.73;68.57;99185.38;5054577;28;20053;-63
2021/08/07 02:01:04;;;;;;;2.00;1.38;;;;;;;17.66;68.78;99188.97;5054846;28;20405;-63
2021/08/07 02:03:33;;;;;;;3.25;1.40;;;;;;;17.65;68.89;99204.22;5054516;28;20482;-64
2021/08/07 02:06:01;;;;;;;3.10;1.40;;;;;;;17.72;68.59;99198.63;5054898;28;20049;-64
2021/08/07 02:08:29;;;;;;;4.13;1.73;;;;;;;17.69;68.60;99196.59;5053549;28;20478;-64
2021/08/07 02:10:58;;;;;;;2.55;1.50;;;;;;;17.66;68.72;99203.03;5054509;28;20053;-64
2021/08/07 02:13:26;;;;;;;;;;;;;;;17.60;68.80;99201.78;5054651;28;20052;-64
2021/08/07 02:15:55;;;;;;;3.08;1.48;;;;;;;17.70;68.54;99201.03;5053430;28;19921;-64
2021/08/07 02:18:26;;;;;;;2.58;1.48;;;;;;;17.73;68.30;99205.88;5053161;28;20053;-64
2021/08/07 02:20:55;;;;;;;2.83;1.50;;;;;;;17.59;69.02;99200.97;5054393;28;20508;-64
2021/08/07 02:23:23;;;;;;;3.50;1.50;;;;;;;17.72;68.53;99203.44;5053498;28;20056;-64
2021/08/07 02:25:55;;;;;;;3.67;1.60;;;;;;;17.79;68.23;99200.69;5053904;28;20056;-64
2021/08/07 02:28:23;;;;;;;2.53;1.23;;;;;;;17.69;68.48;99210.69;5052993;28;20056;-64
2021/08/07 02:30:52;;;;;;;3.30;1.30;;;;;;;17.81;68.07;99196.25;5054114;28;20053;-64
2021/08/07 02:33:22;;;;;;;2.25;1.40;;;;;;;17.81;68.12;99193.44;5054418;28;20110;-64
2021/08/07 02:35:54;;;;;;;;;;;;;;;17.79;68.03;99186.59;5055005;28;20397;-64
2021/08/07 02:38:23;;;;;;;2.60;1.20;;;;;;;17.84;67.92;99189.84;5052933;28;19920;-64
2021/08/07 02:40:50;;;;;;;3.25;1.50;;;;;;;17.82;67.55;99189.44;5053894;28;20052;-64
2021/08/07 02:43:18;;;;;;;2.70;1.33;;;;;;;17.74;68.18;99184.94;5054001;28;20049;-64
2021/08/07 02:45:46;;;;;;;3.22;1.30;;;;;;;17.93;67.37;99191.50;5053798;28;20462;-64
2021/08/07 02:48:14;;;;;;;4.20;1.52;;;;;;;17.84;67.86;99189.84;5054019;28;20397;-64
2021/08/07 02:50:42;;;;;;;2.30;1.40;;;;;;;17.73;68.16;99188.19;5053668;28;20055;-64
2021/08/07 02:53:11;;;;;;;4.50;1.90;;;;;;;17.83;68.17;99193.09;5052683;28;20057;-64
2021/08/07 02:55:40;;;;;;;3.08;1.52;;;;;;;17.85;67.63;99185.84;5053538;28;20053;-64
2021/08/07 02:58:08;;;;;;;5.32;1.58;;;;;;;17.90;67.57;99181.03;5053762;28;20049;-64
2021/08/07 03:00:37;;;;;;;3.33;1.40;;;;;;;17.81;67.71;99179.38;5039066;28;20372;-64
2021/08/07 03:03:05;;;;;;;2.37;1.57;;;;;;;17.88;67.36;99158.09;5033802;28;20466;-64
2021/08/07 03:05:32;;;;;;;2.63;1.45;;;;;;;17.73;68.31;99176.91;5033150;28;20475;-64
2021/08/07 03:07:59;;;;;;;3.75;1.50;;;;;;;17.72;68.15;99175.28;5038367;28;20052;-64
2021/08/07 03:10:29;;;;;;;3.72;1.58;;;;;;;17.75;67.67;99168.88;5053362;28;20068;-64
2021/08/07 03:12:57;;;;;;;3.38;1.40;;;;;;;17.62;68.28;99159.97;5053200;28;20053;-64
2021/08/07 03:15:25;;;;;;;3.05;1.35;;;;;;;17.67;68.05;99168.03;5053472;28;20389;-64
2021/08/07 03:17:53;;;;;;;3.17;1.90;;;;;;;17.65;68.06;99161.97;5053126;28;20057;-64
2021/08/07 03:20:30;;;;;;;2.60;1.30;;;;;;;17.53;68.64;99162.31;5053203;28;20056;-64
2021/08/07 03:22:58;;;;;;;2.13;1.45;;;;;;;17.55;68.35;99148.66;5051611;28;20041;-64
2021/08/07 03:25:25;;;;;;;3.22;1.70;;;;;;;17.53;68.56;99156.69;5052863;28;20056;-64
2021/08/07 03:27:55;;;;;;;3.50;1.50;;;;;;;17.48;68.51;99159.88;5052955;28;20401;-64
2021/08/07 03:30:22;;;;;;;3.17;1.73;;;;;;;17.43;68.64;99161.88;5052743;28;20049;-64
2021/08/07 03:32:49;;;;;;;2.17;1.50;;;;;;;17.38;69.07;99147.34;5052845;28;20514;-64
2021/08/07 03:35:17;;;;;;;4.45;1.60;;;;;;;17.39;69.15;99148.97;5053131;28;20473;-64
2021/08/07 03:37:44;;;;;;;3.05;1.40;;;;;;;17.43;68.85;99156.25;5052324;28;20513;-64
2021/08/07 03:40:13;;;;;;;3.45;1.67;;;;;;;17.25;69.46;99150.50;5051879;28;20433;-64
2021/08/07 03:42:41;;;;;;;2.30;1.65;;;;;;;17.34;69.25;99157.78;5052677;28;20425;-63
2021/08/07 03:45:11;;;;;;;3.55;1.85;;;;;;;17.24;69.57;99157.31;5052695;28;20064;-63
2021/08/07 03:47:55;;;;;;;2.42;1.50;;;;;;;17.14;69.85;99160.06;5052187;28;20060;-63
2021/08/07 03:50:26;;;;;;;4.05;1.50;;;;;;;17.08;70.04;99162.44;5052752;28;20053;-63
2021/08/07 03:52:53;;;;;;;4.65;1.55;;;;;;;17.10;70.18;99159.25;5051440;28;20053;-63
2021/08/07 03:55:21;;;;;;;4.05;1.48;;;;;;;17.02;70.47;99150.72;5032767;28;20060;-63
2021/08/07 03:57:50;;;;;;;5.05;1.73;;;;;;;17.08;70.25;99156.81;5032375;28;20060;-63
2021/08/07 04:00:19;;;;;;;;;;;;;;;17.05;70.07;99154.78;5032967;28;20056;-63
2021/08/07 04:02:47;;;;;;;3.67;1.70;;;;;;;17.10;70.21;99150.78;5032290;28;19921;-63
2021/08/07 04:05:14;;;;;;;3.70;1.67;;;;;;;17.14;70.34;99149.63;5032545;28;20060;-63
2021/08/07 04:07:41;;;;;;;3.05;1.80;;;;;;;17.19;70.54;99148.44;5034184;28;20506;-63
2021/08/07 04:10:10;;;;;;;3.05;1.60;;;;;;;17.16;70.67;99143.59;5032436;28;20052;-63
2021/08/07 04:12:38;;;;;;;3.38;1.92;;;;;;;17.24;70.38;99148.09;5032428;28;20058;-63
2021/08/07 04:15:07;;;;;;;4.70;1.70;;;;;;;17.23;70.48;99152.09;5032572;28;20065;-63
2021/08/07 04:17:38;;;;;;;3.72;2.00;;;;;;;17.26;70.38;99148.50;5032293;28;20056;-63
2021/08/07 04:20:07;;;;;;;3.00;1.67;;;;;;;17.29;70.50;99144.09;5032445;28;20061;-63
2021/08/07 04:22:34;;;;;;;;;;;;;;;17.29;70.24;99147.72;5035859;28;20517;-64
2021/08/07 04:25:02;;;;;;;2.65;1.63;;;;;;;17.31;70.37;99142.50;5037676;28;20377;-64
2021/08/07 04:27:30;;;;;;;2.63;1.70;;;;;;;17.37;70.30;99140.13;5032514;28;20430;-64
2021/08/07 04:29:57;;;;;;;3.22;1.60;;;;;;;17.38;70.04;99145.34;5032168;28;20498;-64
2021/08/07 04:32:25;;;;;;;2.63;1.65;;;;;;;17.38;70.02;99133.28;5032439;28;20403;-64
2021/08/07 04:34:53;;;;;;;3.90;1.80;;;;;;;17.40;69.94;99131.69;5031814;28;20053;-64
2021/08/07 04:37:21;;;;;;;4.60;1.63;;;;;;;17.42;70.09;99132.09;5031790;28;20065;-64
2021/08/07 04:39:48;;;;;;;3.88;1.92;;;;;;;17.43;70.45;99130.09;5045706;28;20057;-64
2021/08/07 04:42:16;;;;;;;4.63;2.20;;;;;;;17.44;70.00;99126.06;5055404;28;20049;-64
2021/08/07 04:44:46;;;;;;;2.30;1.80;;;;;;;17.47;69.71;99135.72;5055891;28;20048;-64
2021/08/07 04:47:13;;;;;;;3.55;1.83;;;;;;;17.45;70.01;99141.78;5056052;28;20059;-64
2021/08/07 04:49:40;;;;;;;4.10;1.90;;;;;;;17.51;69.59;99136.56;5055794;28;20053;-64
2021/08/07 04:52:09;;;;;;;6.55;2.40;;;;;;;17.52;69.70;99143.81;5055670;28;20053;-64
2021/08/07 04:54:36;;;;;;;7.50;2.13;;;;;;;17.55;69.95;99131.75;5054559;28;20481;-64
2021/08/07 04:57:04;;;;;;;3.88;1.88;;;;;;;17.57;70.13;99121.72;5055157;28;20041;-64
2021/08/07 04:59:31;;;;;;;3.35;1.90;;;;;;;17.66;69.68;99127.00;5053573;28;20048;-64
2021/08/07 05:01:59;;;;;;;3.33;1.88;;;;;;;17.73;69.60;99127.03;5035662;28;20049;-64
2021/08/07 05:04:26;;;;;;;3.55;1.80;;;;;;;17.82;69.39;99130.28;5051222;28;20045;-64
2021/08/07 05:06:53;;;;;;;2.53;1.70;;;;;;;17.90;69.05;99124.72;5055452;28;20048;-63
2021/08/07 05:09:22;;;;;;;3.83;1.58;;;;;;;17.97;68.86;99128.34;5055133;28;20063;-63
2021/08/07 05:11:50;;;;;;;4.10;1.55;;;;;;;18.11;68.07;99130.41;5053551;28;20056;-63
2021/08/07 05:14:17;;;;;;;2.80;1.65;;;;;;;17.99;68.34;99122.31;5054265;28;20048;-64
2021/08/07 05:16:44;;;;;;;4.10;1.40;;;;;;;18.20;67.75;99130.00;5054945;28;20049;-64
2021/08/07 05:19:11;;;;;;;2.40;1.45;;;;;;;18.04;67.60;99133.22;5055216;28;20064;-64
2021/08/07 05:21:39;;;;;;;2.80;1.10;;;;;;;18.14;67.19;99123.97;5055219;28;20489;-64
2021/08/07 05:24:06;;;;;;;2.13;1.20;;;;;;;18.30;66.43;99120.78;5054145;28;20469;-64
2021/08/07 05:26:35;;;;;;;3.13;1.15;;;;;;;18.44;65.85;99122.81;5054951;28;20053;-64
2021/08/07 05:29:02;;;;;;;3.15;1.30;;;;;;;18.56;65.45;99122.44;5054672;28;20057;-64
2021/08/07 05:31:30;;;;;;;3.60;1.25;;;;;;;18.56;65.24;99127.25;5055363;28;20056;-64
2021/08/07 05:33:57;;;;;;;3.80;1.40;;;;;;;18.53;65.69;99137.31;5055044;28;20481;-64
2021/08/07 05:36:24;;;;;;;2.58;1.13;;;;;;;18.75;64.96;99128.88;5055135;28;20520;-64
2021/08/07 05:38:51;;;;;;;2.22;1.10;;;;;;;18.89;64.44;99128.91;5053843;28;20417;-64
2021/08/07 05:41:19;;;;;;;2.15;1.20;;;;;;;18.81;64.62;99127.28;5055155;28;20053;-65
2021/08/07 05:43:47;;;;;;;3.63;1.30;;;;;;;18.93;64.68;99126.09;5054662;28;20383;-65
2021/08/07 05:46:15;;;;;;;3.57;1.50;;;;;;;19.01;63.86;99122.84;5055187;28;20057;-65
2021/08/07 05:48:42;;;;;;;4.22;1.20;;;;;;;19.12;64.05;99127.69;5054788;28;20475;-64
2021/08/07 05:51:09;;;;;;;3.92;1.25;;;;;;;19.23;63.40;99128.47;5055372;28;20057;-65
2021/08/07 05:53:37;;;;;;;2.97;1.30;;;;;;;19.00;64.09;99123.25;5053701;28;20045;-64
2021/08/07 05:56:04;;;;;;;3.35;1.20;;;;;;;19.20;63.41;99115.16;5054636;28;20053;-64
2021/08/07 05:58:37;;;;;;;4.68;1.20;;;;;;;19.43;62.76;99118.34;5049722;28;20070;-65
2021/08/07 06:01:08;;;;;;;3.65;1.30;;;;;;;19.58;62.25;99118.28;5052289;28;20053;-65
2021/08/07 06:03:35;;;;;;;3.63;1.25;;;;;;;19.53;62.41;99125.16;5049999;28;20501;-65
2021/08/07 06:06:03;;;;;;;3.28;1.20;;;;;;;19.61;62.10;99123.09;5034525;28;20399;-65
2021/08/07 06:08:31;;;;;;;2.75;1.23;;;;;;;19.63;62.40;99109.38;5034775;28;20060;-65
2021/08/07 06:10:58;;;;;;;2.63;1.10;;;;;;;19.80;61.47;99102.91;5052734;28;20049;-65
2021/08/07 06:13:26;;;;;;;2.08;1.10;;;;;;;19.85;61.19;99108.13;5053805;28;20510;-65
2021/08/07 06:15:54;;;;;;;2.78;1.23;;;;;;;19.88;61.31;99103.66;5053516;28;20402;-65
2021/08/07 06:18:23;;;;;;;3.03;1.25;;;;;;;19.81;61.71;99104.50;5053766;28;20060;-65
2021/08/07 06:20:51;;;;;;;2.42;1.10;;;;;;;19.93;61.75;99093.94;5053129;28;20064;-65
2021/08/07 06:23:18;;;;;;;4.03;1.25;;;;;;;20.07;61.33;99097.50;5053317;28;20057;-65
2021/08/07 06:25:46;;;;;;;4.20;1.15;;;;;;;19.94;61.28;99090.69;5053825;28;20060;-65
2021/08/07 06:28:14;;;;;;;3.35;1.20;;;;;;;19.95;61.29;99092.31;5054162;28;20513;-65
2021/08/07 06:30:45;;;;;;;4.03;1.30;;;;;;;20.17;60.89;99093.00;5053228;28;20375;-65
2021/08/07 06:33:13;;;;;;;2.97;1.20;;;;;;;20.35;59.66;99086.41;5053194;28;20057;-65
2021/08/07 06:35:42;;;;;;;3.05;1.27;;;;;;;20.39;59.94;99087.19;5054088;28;20478;-65
2021/08/07 06:38:09;;;;;;;4.55;1.33;;;;;;;20.13;60.43;99091.41;5052999;28;20045;-65
2021/08/07 06:40:38;;;;;;;3.25;1.30;;;;;;;20.53;59.48;99098.41;5053577;28;20390;-65
2021/08/07 06:43:05;;;;;;;3.78;1.38;;;;;;;20.77;58.52;99096.63;5052486;28;20049;-65
2021/08/07 06:45:32;;;;;;;7.03;1.65;;;;;;;20.68;58.89;99099.94;5053580;28;20068;-65
2021/08/07 06:48:00;;;;;;;3.22;1.20;;;;;;;20.88;58.04;99105.03;5053114;28;20064;-65
2021/08/07 06:50:28;;;;;;;3.13;1.10;;;;;;;20.74;58.50;99110.81;5053678;28;20449;-66
2021/08/07 06:52:57;;;;;;;3.55;1.90;;;;;;;21.17;57.46;99114.06;5053286;28;20056;-65
2021/08/07 06:55:24;;;;;;;4.18;1.20;;;;;;;21.27;57.64;99109.47;5053443;28;20057;-65
2021/08/07 06:57:51;;;;;;;2.83;1.20;;;;;;;21.42;56.80;99107.34;5052618;28;20073;-65
2021/08/07 07:00:19;;;;;;;4.88;1.23;;;;;;;21.58;56.58;99109.59;5052832;28;20053;-65
2021/08/07 07:02:46;;;;;;;1.80;0.82;;;;;;;21.65;56.50;99109.53;5033018;28;20060;-65
2021/08/07 07:05:16;;;;;;;2.22;1.20;;;;;;;21.54;56.25;99112.44;5032911;28;20053;-65
2021/08/07 07:07:44;;;;;;;3.80;1.15;;;;;;;21.22;56.90;99110.75;5033390;28;20057;-65
2021/08/07 07:10:14;;;;;;;3.75;1.20;;;;;;;21.20;56.74;99115.22;5033545;28;20056;-65
2021/08/07 07:12:42;;;;;;;5.38;1.10;;;;;;;21.22;56.87;99109.94;5033385;28;20490;-66
2021/08/07 07:15:10;;;;;;;4.70;1.30;;;;;;;20.92;57.41;99119.94;5034540;28;20470;-66
2021/08/07 07:17:37;;;;;;;3.67;1.35;;;;;;;20.94;57.60;99114.69;5051417;28;20055;-66
2021/08/07 07:20:07;;;;;;;3.47;1.30;;;;;;;21.10;57.22;99105.63;5038258;28;20049;-65
2021/08/07 07:22:34;;;;;;;3.25;1.10;;;;;;;21.31;56.59;99101.75;5034943;28;20049;-65
2021/08/07 07:25:02;;;;;;;2.20;1.00;;;;;;;21.36;56.52;99106.97;5050930;28;20068;-65
2021/08/07 07:27:30;;;;;;;2.92;1.10;;;;;;;21.19;56.53;99096.66;5052240;28;20053;-65
2021/08/07 07:29:58;;;;;;;4.18;1.08;;;;;;;21.41;56.40;99094.38;5052676;28;20046;-65
2021/08/07 07:32:25;;;;;;;3.92;1.25;;;;;;;21.22;57.08;99109.94;5052714;28;20044;-65
2021/08/07 07:34:53;;;;;;;4.07;1.40;;;;;;;21.21;56.80;99131.81;5052534;28;20386;-65
2021/08/07 07:37:20;;;;;;;4.47;1.63;;;;;;;21.43;55.93;99121.06;5052661;28;20057;-65
2021/08/07 07:39:48;;;;;;;3.85;1.30;;;;;;;21.64;55.87;99122.06;5052506;28;20116;-65
2021/08/07 07:42:15;;;;;;;3.42;1.30;;;;;;;21.85;55.36;99118.97;5051025;28;20053;-65
2021/08/07 07:44:44;;;;;;;4.15;1.10;;;;;;;22.01;54.16;99120.41;5052874;28;20064;-65
2021/08/07 07:47:12;;;;;;;4.00;1.50;;;;;;;22.58;53.23;99113.91;5052410;28;20071;-65
2021/08/07 07:49:39;;;;;;;3.42;1.45;;;;;;;23.10;51.84;99109.84;5052736;28;20375;-65
2021/08/07 07:52:10;;;;;;;2.90;1.15;;;;;;;23.93;49.94;99113.94;5052411;28;20057;-65
2021/08/07 07:54:37;;;;;;;3.30;1.23;;;;;;;24.01;49.37;99123.91;5052320;28;20056;-66
2021/08/07 07:57:08;;;;;;;4.32;1.40;;;;;;;24.59;47.09;99115.72;5047728;28;20063;-65
2021/08/07 07:59:36;;;;;;;4.25;1.63;;;;;;;25.44;45.27;99116.81;5047665;28;20481;-65
2021/08/07 08:02:07;;;;;;;3.83;1.42;;;;;;;25.81;44.15;99120.28;5051994;28;20111;-65
2021/08/07 08:04:34;;;;;;;3.95;1.40;;;;;;;26.41;42.40;99128.25;5043164;28;20417;-65
2021/08/07 08:07:01;;;;;;;4.93;1.33;;;;;;;26.11;43.31;99110.44;5043004;28;20437;-65
2021/08/07 08:09:29;;;;;;;2.90;1.20;;;;;;;27.32;40.61;99102.81;5051852;28;20049;-65
2021/08/07 08:11:57;;;;;;;3.08;1.35;;;;;;;27.37;40.47;99114.94;5047477;28;20479;-65
2021/08/07 08:14:24;;;;;;;2.97;1.30;;;;;;;26.91;41.33;99106.66;5051103;28;20083;-65
2021/08/07 08:16:52;;;;;;;2.92;1.10;;;;;;;27.27;40.52;99105.47;5049966;28;20453;-65
2021/08/07 08:19:20;;;;;;;3.20;1.23;;;;;;;27.87;39.04;99102.47;5040633;28;20064;-65
2021/08/07 08:21:48;;;;;;;3.10;1.15;;;;;;;27.87;39.48;99096.75;5044687;28;20056;-65
2021/08/07 08:24:15;;;;;;;3.95;1.45;;;;;;;27.42;40.25;99105.75;5051870;28;20083;-66
2021/08/07 08:26:42;;;;;;;2.92;1.33;;;;;;;27.30;40.23;99107.41;5050493;28;20056;-65
2021/08/07 08:29:10;;;;;;;3.83;1.33;;;;;;;26.06;42.33;99111.78;5034142;28;20069;-65
2021/08/07 08:31:38;;;;;;;4.82;1.48;;;;;;;25.08;45.29;99110.00;5046158;28;20490;-65
2021/08/07 08:34:06;;;;;;;3.65;1.30;;;;;;;24.99;45.15;99092.75;5050264;28;20072;-65
2021/08/07 08:36:35;;;;;;;2.25;1.33;;;;;;;25.77;44.00;99077.59;5041383;28;20061;-65
2021/08/07 08:39:02;;;;;;;3.60;1.80;;;;;;;26.17;43.00;99080.06;5043296;28;20135;-65
2021/08/07 08:41:34;;;;;;;3.03;1.20;;;;;;;25.57;43.82;99089.16;5051471;28;20049;-65
2021/08/07 08:44:01;;;;;;;2.78;1.20;;;;;;;25.96;43.38;99077.88;5042962;28;20052;-65
2021/08/07 08:46:30;;;;;;;4.00;1.15;;;;;;;25.95;43.17;99067.72;5051628;28;20468;-65
2021/08/07 08:48:57;;;;;;;2.40;1.13;;;;;;;25.54;44.01;99072.16;5049865;28;20052;-65
2021/08/07 08:51:26;;;;;;;2.38;1.67;;;;;;;26.59;41.35;99068.56;5051743;28;20061;-65
2021/08/07 08:53:55;;;;;;;3.13;1.20;;;;;;;26.97;40.61;99073.41;5049676;28;20056;-66
2021/08/07 08:56:22;;;;;;;;;;;;;;;27.83;39.41;99050.28;5051956;28;20049;-66
2021/08/07 08:58:50;;;;;;;2.47;1.20;;;;;;;28.49;38.17;99055.09;5052196;28;20285;-66
2021/08/07 09:01:18;;;;;;;3.63;1.55;;;;;;;30.16;34.84;99036.63;5032368;28;20053;-66
2021/08/07 09:03:47;;;;;;;4.78;1.30;;;;;;;31.81;32.61;99035.97;5032534;28;20045;-66
2021/08/07 09:06:15;;;;;;;3.13;1.30;;;;;;;32.59;30.55;99030.78;5049767;28;20057;-66
2021/08/07 09:08:59;;;;;;;3.70;1.20;;;;;;;33.32;29.78;99045.38;5051649;28;20049;-66
2021/08/07 09:11:28;;;;;;;3.58;1.27;;;;;;;33.09;28.69;99035.66;5052011;28;20061;-66
2021/08/07 09:14:27;;;;;;;2.90;1.30;;;;;;;32.81;29.49;99027.41;5049463;28;20045;-66
2021/08/07 09:17:09;;;;;;;2.25;1.40;;;;;;;34.00;28.19;99034.53;4988932;28;20097;-66
2021/08/07 09:19:53;;;;;;;2.28;1.40;;;;;;;35.11;25.71;99033.75;5042150;28;20049;-66
2021/08/07 09:22:26;;;;;;;3.05;1.40;;;;;;;36.21;24.16;99023.47;5051211;28;20064;-66
2021/08/07 09:24:59;;;;;;;2.92;1.58;;;;;;;35.82;25.03;99021.31;5050483;28;20053;-66
2021/08/07 09:27:31;;;;;;;2.40;1.30;;;;;;;34.57;26.51;99016.34;5052945;28;20057;-66
2021/08/07 09:30:00;;;;;;;3.20;1.10;;;;;;;33.44;28.07;99012.44;5054755;28;20049;-66
2021/08/07 09:32:27;;;;;;;;;;;;;;;32.41;29.85;99017.38;5055493;28;20049;-66
2021/08/07 09:35:08;;;;;;;3.10;1.60;;;;;;;35.37;25.03;99021.22;5036721;28;19921;-66
2021/08/07 09:37:39;;;;;;;2.25;0.93;;;;;;;34.57;25.58;99013.44;5034761;28;20072;-66
2021/08/07 09:40:10;;;;;;;3.40;1.33;;;;;;;33.07;27.72;99020.91;5040866;28;20064;-66
2021/08/07 09:42:51;;;;;;;3.17;1.20;;;;;;;31.96;30.04;99010.84;5054839;28;20056;-66
2021/08/07 09:45:23;;;;;;;2.42;1.08;;;;;;;31.39;30.45;99023.41;5054437;28;20056;-65
2021/08/07 09:47:59;;;;;;;3.22;1.00;;;;;;;30.44;31.93;99019.28;5055156;28;20053;-65
2021/08/07 09:50:29;;;;;;;2.80;1.10;;;;;;;29.64;32.09;99027.16;5055224;28;20096;-65
2021/08/07 09:52:57;;;;;;;2.38;1.00;;;;;;;29.04;33.29;99035.16;5054805;28;20488;-66
2021/08/07 09:55:26;;;;;;;2.72;1.10;;;;;;;28.19;35.44;99028.84;5050854;28;20049;-65
2021/08/07 09:58:03;;;;;;;;;;;;;;;27.41;36.89;99036.31;5054079;28;20057;-65
2021/08/07 10:00:48;;;;;;;2.45;1.20;;;;;;;26.60;38.39;99027.31;5054860;28;19927;-65
2021/08/07 10:03:17;;;;;;;3.13;1.13;;;;;;;26.11;38.99;99033.38;5054328;28;20080;-65
2021/08/07 10:05:45;;;;;;;2.53;0.98;;;;;;;25.55;40.46;99040.31;5054583;28;20053;-65
2021/08/07 10:08:13;;;;;;;3.88;0.98;;;;;;;25.64;40.51;99036.81;5054014;28;20101;-65
2021/08/07 10:10:43;;;;;;;2.80;1.13;;;;;;;26.39;38.78;99028.00;5054529;28;20056;-66
2021/08/07 10:13:12;;;;;;;2.33;1.17;;;;;;;26.45;38.44;99029.00;5053723;28;20049;-65
2021/08/07 10:15:40;;;;;;;;;;;;;;;27.58;37.23;99034.06;5054544;28;20053;-65
2021/08/07 10:18:08;;;;;;;2.80;1.17;;;;;;;27.26;37.04;99020.97;5053705;28;19920;-65
2021/08/07 10:20:37;;;;;;;3.93;1.23;;;;;;;27.00;37.97;99029.59;5054048;28;20434;-65
2021/08/07 10:23:07;;;;;;;2.72;1.20;;;;;;;26.79;39.10;99036.84;5052489;28;20053;-65
2021/08/07 10:25:34;;;;;;;;;;;;;;;27.14;38.28;99028.28;5053158;28;20048;-65
2021/08/07 10:28:04;;;;;;;3.97;1.10;;;;;;;27.05;38.11;99028.22;5052466;28;19928;-64
2021/08/07 10:30:34;;;;;;;3.55;1.25;;;;;;;26.82;37.71;99018.81;5052813;28;20053;-65
2021/08/07 10:33:02;;;;;;;2.63;1.00;;;;;;;26.54;37.63;99003.41;5053620;28;20057;-65
2021/08/07 10:35:30;;;;;;;3.83;1.27;;;;;;;27.16;36.40;98999.25;5043489;28;20477;-65
2021/08/07 10:37:59;;;;;;;3.65;1.50;;;;;;;27.59;35.81;98995.59;5036062;28;20432;-65
2021/08/07 10:40:28;;;;;;;;;;;;;;;28.87;33.21;98985.13;5044025;28;20057;-65
2021/08/07 10:42:56;;;;;;;3.33;1.10;;;;;;;28.27;34.50;98995.81;5052824;28;19920;-65
2021/08/07 10:45:24;;;;;;;2.97;1.40;;;;;;;27.76;35.88;98993.34;5043856;28;20494;-65
2021/08/07 10:47:53;;;;;;;2.38;1.08;;;;;;;27.27;36.91;98973.94;5052814;28;20524;-65
2021/08/07 10:50:36;;;;;;;3.90;1.33;;;;;;;26.69;37.11;98978.84;5053437;28;20064;-65
2021/08/07 10:53:06;;;;;;;4.07;1.63;;;;;;;26.81;36.97;98993.56;5052911;28;20049;-65
2021/08/07 10:55:45;;;;;;;3.47;1.25;;;;;;;26.82;36.98;98983.72;5053415;28;20052;-65
2021/08/07 10:58:33;;;;;;;3.25;1.35;;;;;;;26.31;38.06;98971.16;5053080;28;20131;-64
2021/08/07 11:01:29;;;;;;;3.53;1.52;;;;;;;25.78;39.04;98970.78;5051766;28;20052;-65
2021/08/07 11:04:24;;;;;;;2.75;1.10;;;;;;;25.84;39.12;98968.97;5052480;28;20395;-64
2021/08/07 11:06:57;;;;;;;3.97;1.20;;;;;;;25.77;39.51;98974.91;5050998;28;20391;-65
2021/08/07 11:09:28;;;;;;;4.38;1.48;;;;;;;26.89;37.52;98958.53;5052849;28;20053;-63
2021/08/07 11:12:19;;;;;;;3.47;1.10;;;;;;;26.30;38.98;98960.97;5052799;28;20049;-64
2021/08/07 11:14:51;;;;;;;2.80;1.23;;;;;;;26.35;39.60;98955.94;5053027;28;20052;-63
2021/08/07 11:17:34;;;;;;;2.92;1.00;;;;;;;27.33;39.40;98954.94;5052260;28;20057;-65
2021/08/07 11:20:06;;;;;;;2.80;1.15;;;;;;;27.04;38.06;98964.53;5052797;28;20064;-65
2021/08/07 11:23:09;;;;;;;4.53;1.20;;;;;;;26.48;39.33;98976.69;5053126;28;20152;-65
2021/08/07 11:26:00;;;;;;;3.15;1.42;;;;;;;25.96;40.73;98978.03;5052174;28;20048;-65
2021/08/07 11:28:29;;;;;;;4.78;1.27;;;;;;;25.24;44.24;98977.28;5052655;28;20057;-65
2021/08/07 11:31:20;;;;;;;3.17;1.40;;;;;;;25.12;42.92;98981.69;5053028;28;20057;-65
2021/08/07 11:34:26;;;;;;;2.75;1.10;;;;;;;24.09;45.04;98983.13;5052417;28;20049;-65
2021/08/07 11:37:15;;;;;;;4.65;1.48;;;;;;;24.24;44.49;98984.38;5046159;28;20068;-65
2021/08/07 11:40:08;;;;;;;3.92;1.40;;;;;;;23.92;45.55;98982.31;5036343;28;20056;-65
2021/08/07 11:42:39;;;;;;;3.53;1.30;;;;;;;23.90;45.18;98985.59;5032799;28;20049;-64
2021/08/07 11:45:07;;;;;;;6.38;1.75;;;;;;;23.81;46.03;98973.22;5032569;28;20394;-64
2021/08/07 11:47:44;;;;;;;4.10;1.20;;;;;;;23.81;46.27;98973.22;5032693;28;20056;-64
2021/08/07 11:50:13;;;;;;;4.55;1.40;;;;;;;23.89;47.03;98964.06;5033069;28;20049;-66